sensor_id;sensor_type;location;lat;lon;timestamp;P1;durP1;ratioP1;P2;durP2;ratioP2
549;SDS011;20066;48.764;9.176;2022-12-07T00:01:06;14.27;;;7.38;;
549;SDS011;20066;48.764;9.176;2022-12-07T00:03:35;14.10;;;7.00;;
549;SDS011;20066;48.764;9.176;2022-12-07T00:06:04;13.73;;;7.28;;
549;SDS011;20066;48.764;9.176;2022-12-07T00:08:33;12.90;;;7.55;;
549;SDS011;20066;48.764;9.176;2022-12-07T00:11:02;17.30;;;7.38;;
549;SDS011;20066;48.764;9.176;2022-12-07T00:13:30;14.77;;;7.82;;
549;SDS011;20066;48.764;9.176;2022-12-07T00:15:59;13.75;;;8.45;;
549;SDS011;20066;48.764;9.176;2022-12-07T00:18:30;15.02;;;8.45;;
549;SDS011;20066;48.764;9.176;2022-12-07T00:21:00;14.25;;;7.80;;
549;SDS011;20066;48.764;9.176;2022-12-07T00:23:29;12.82;;;7.60;;
549;SDS011;20066;48.764;9.176;2022-12-07T00:26:02;12.65;;;7.30;;
549;SDS011;20066;48.764;9.176;2022-12-07T00:28:31;12.85;;;7.35;;
549;SDS011;20066;48.764;9.176;2022-12-07T00:31:00;15.93;;;7.90;;
549;SDS011;20066;48.764;9.176;2022-12-07T00:33:30;14.40;;;7.90;;
549;SDS011;20066;48.764;9.176;2022-12-07T00:35:59;15.65;;;7.82;;
549;SDS011;20066;48.764;9.176;2022-12-07T00:38:27;12.07;;;7.25;;
549;SDS011;20066;48.764;9.176;2022-12-07T00:40:56;17.05;;;9.43;;
549;SDS011;20066;48.764;9.176;2022-12-07T00:43:25;20.80;;;10.20;;
549;SDS011;20066;48.764;9.176;2022-12-07T00:45:53;17.17;;;9.95;;
549;SDS011;20066;48.764;9.176;2022-12-07T00:48:21;16.13;;;9.35;;
549;SDS011;20066;48.764;9.176;2022-12-07T00:50:51;18.13;;;9.75;;
549;SDS011;20066;48.764;9.176;2022-12-07T00:53:19;16.40;;;8.77;;
549;SDS011;20066;48.764;9.176;2022-12-07T00:55:47;15.25;;;8.88;;
549;SDS011;20066;48.764;9.176;2022-12-07T00:58:14;19.60;;;9.07;;
549;SDS011;20066;48.764;9.176;2022-12-07T01:00:43;18.13;;;9.27;;
549;SDS011;20066;48.764;9.176;2022-12-07T01:03:12;13.73;;;8.38;;
549;SDS011;20066;48.764;9.176;2022-12-07T01:05:48;17.42;;;9.20;;
549;SDS011;20066;48.764;9.176;2022-12-07T01:08:17;18.10;;;9.35;;
549;SDS011;20066;48.764;9.176;2022-12-07T01:10:45;17.80;;;8.45;;
549;SDS011;20066;48.764;9.176;2022-12-07T01:13:13;17.80;;;10.13;;
549;SDS011;20066;48.764;9.176;2022-12-07T01:15:41;18.35;;;8.90;;
549;SDS011;20066;48.764;9.176;2022-12-07T01:18:10;21.15;;;8.73;;
549;SDS011;20066;48.764;9.176;2022-12-07T01:20:38;16.77;;;8.48;;
549;SDS011;20066;48.764;9.176;2022-12-07T01:23:06;18.70;;;8.07;;
549;SDS011;20066;48.764;9.176;2022-12-07T01:25:35;15.88;;;8.55;;
549;SDS011;20066;48.764;9.176;2022-12-07T01:28:03;16.52;;;9.20;;
549;SDS011;20066;48.764;9.176;2022-12-07T01:30:31;20.45;;;8.63;;
549;SDS011;20066;48.764;9.176;2022-12-07T01:32:59;20.45;;;9.40;;
549;SDS011;20066;48.764;9.176;2022-12-07T01:35:26;16.55;;;8.80;;
549;SDS011;20066;48.764;9.176;2022-12-07T01:37:54;15.50;;;8.23;;
549;SDS011;20066;48.764;9.176;2022-12-07T01:40:22;16.67;;;8.35;;
549;SDS011;20066;48.764;9.176;2022-12-07T01:42:50;17.73;;;9.00;;
549;SDS011;20066;48.764;9.176;2022-12-07T01:45:31;18.73;;;8.48;;
549;SDS011;20066;48.764;9.176;2022-12-07T01:48:04;17.58;;;9.13;;
549;SDS011;20066;48.764;9.176;2022-12-07T01:50:34;17.33;;;8.27;;
549;SDS011;20066;48.764;9.176;2022-12-07T01:53:03;17.63;;;8.38;;
549;SDS011;20066;48.764;9.176;2022-12-07T01:55:34;19.77;;;9.18;;
549;SDS011;20066;48.764;9.176;2022-12-07T01:58:07;16.90;;;9.05;;
549;SDS011;20066;48.764;9.176;2022-12-07T02:00:35;17.63;;;9.30;;
549;SDS011;20066;48.764;9.176;2022-12-07T02:03:04;17.60;;;8.15;;
549;SDS011;20066;48.764;9.176;2022-12-07T02:05:37;18.30;;;8.27;;
549;SDS011;20066;48.764;9.176;2022-12-07T02:08:07;18.77;;;8.85;;
549;SDS011;20066;48.764;9.176;2022-12-07T02:10:35;14.52;;;7.63;;
549;SDS011;20066;48.764;9.176;2022-12-07T02:13:04;16.80;;;8.85;;
549;SDS011;20066;48.764;9.176;2022-12-07T02:15:37;17.52;;;7.97;;
549;SDS011;20066;48.764;9.176;2022-12-07T02:18:30;17.70;;;9.85;;
549;SDS011;20066;48.764;9.176;2022-12-07T02:21:08;16.80;;;9.38;;
549;SDS011;20066;48.764;9.176;2022-12-07T02:23:41;20.85;;;9.07;;
549;SDS011;20066;48.764;9.176;2022-12-07T02:29:35;16.67;;;8.60;;
549;SDS011;20066;48.764;9.176;2022-12-07T02:32:12;18.23;;;9.38;;
549;SDS011;20066;48.764;9.176;2022-12-07T02:34:46;16.80;;;8.50;;
549;SDS011;20066;48.764;9.176;2022-12-07T02:37:19;18.77;;;8.75;;
549;SDS011;20066;48.764;9.176;2022-12-07T02:39:55;16.52;;;8.32;;
549;SDS011;20066;48.764;9.176;2022-12-07T02:42:28;19.55;;;9.38;;
549;SDS011;20066;48.764;9.176;2022-12-07T02:45:02;16.70;;;8.75;;
549;SDS011;20066;48.764;9.176;2022-12-07T02:47:33;19.05;;;9.13;;
549;SDS011;20066;48.764;9.176;2022-12-07T02:50:03;15.50;;;7.75;;
549;SDS011;20066;48.764;9.176;2022-12-07T02:52:32;16.30;;;8.38;;
549;SDS011;20066;48.764;9.176;2022-12-07T02:54:59;15.68;;;8.60;;
549;SDS011;20066;48.764;9.176;2022-12-07T02:57:31;14.15;;;8.38;;
549;SDS011;20066;48.764;9.176;2022-12-07T03:00:10;17.15;;;8.45;;
549;SDS011;20066;48.764;9.176;2022-12-07T03:02:45;15.40;;;8.90;;
549;SDS011;20066;48.764;9.176;2022-12-07T03:05:32;20.73;;;9.65;;
549;SDS011;20066;48.764;9.176;2022-12-07T03:08:20;18.90;;;8.40;;
549;SDS011;20066;48.764;9.176;2022-12-07T03:10:54;16.85;;;8.63;;
549;SDS011;20066;48.764;9.176;2022-12-07T03:13:27;15.77;;;8.50;;
549;SDS011;20066;48.764;9.176;2022-12-07T03:16:02;16.80;;;9.25;;
549;SDS011;20066;48.764;9.176;2022-12-07T03:18:35;18.58;;;9.15;;
549;SDS011;20066;48.764;9.176;2022-12-07T03:21:08;17.90;;;8.55;;
549;SDS011;20066;48.764;9.176;2022-12-07T03:23:40;17.25;;;8.43;;
549;SDS011;20066;48.764;9.176;2022-12-07T03:26:10;17.38;;;9.10;;
549;SDS011;20066;48.764;9.176;2022-12-07T03:28:43;15.40;;;8.45;;
549;SDS011;20066;48.764;9.176;2022-12-07T03:31:18;18.00;;;7.85;;
549;SDS011;20066;48.764;9.176;2022-12-07T03:33:51;17.80;;;8.45;;
549;SDS011;20066;48.764;9.176;2022-12-07T03:36:25;18.67;;;8.77;;
549;SDS011;20066;48.764;9.176;2022-12-07T03:38:58;18.77;;;9.20;;
549;SDS011;20066;48.764;9.176;2022-12-07T03:41:34;17.48;;;8.77;;
549;SDS011;20066;48.764;9.176;2022-12-07T03:44:10;14.77;;;7.97;;
549;SDS011;20066;48.764;9.176;2022-12-07T03:46:42;17.05;;;9.38;;
549;SDS011;20066;48.764;9.176;2022-12-07T03:49:16;14.77;;;8.13;;
549;SDS011;20066;48.764;9.176;2022-12-07T03:51:50;17.95;;;8.50;;
549;SDS011;20066;48.764;9.176;2022-12-07T03:54:23;16.85;;;8.73;;
549;SDS011;20066;48.764;9.176;2022-12-07T03:56:55;17.02;;;8.40;;
549;SDS011;20066;48.764;9.176;2022-12-07T03:59:25;15.32;;;8.05;;
549;SDS011;20066;48.764;9.176;2022-12-07T04:01:56;15.80;;;8.60;;
549;SDS011;20066;48.764;9.176;2022-12-07T04:04:28;17.25;;;8.40;;
549;SDS011;20066;48.764;9.176;2022-12-07T04:06:56;16.15;;;8.32;;
549;SDS011;20066;48.764;9.176;2022-12-07T04:09:24;15.85;;;7.88;;
549;SDS011;20066;48.764;9.176;2022-12-07T04:11:52;13.25;;;8.48;;
549;SDS011;20066;48.764;9.176;2022-12-07T04:14:20;13.57;;;7.47;;
549;SDS011;20066;48.764;9.176;2022-12-07T04:16:48;16.20;;;7.57;;
549;SDS011;20066;48.764;9.176;2022-12-07T04:19:19;22.10;;;8.52;;
549;SDS011;20066;48.764;9.176;2022-12-07T04:21:48;15.88;;;8.10;;
549;SDS011;20066;48.764;9.176;2022-12-07T04:24:15;25.52;;;9.02;;
549;SDS011;20066;48.764;9.176;2022-12-07T04:26:44;15.15;;;7.57;;
549;SDS011;20066;48.764;9.176;2022-12-07T04:29:13;16.17;;;7.43;;
549;SDS011;20066;48.764;9.176;2022-12-07T04:31:42;24.30;;;11.80;;
549;SDS011;20066;48.764;9.176;2022-12-07T04:34:10;41.22;;;24.77;;
549;SDS011;20066;48.764;9.176;2022-12-07T04:36:41;19.83;;;12.20;;
549;SDS011;20066;48.764;9.176;2022-12-07T04:39:17;14.70;;;8.43;;
549;SDS011;20066;48.764;9.176;2022-12-07T04:41:47;12.85;;;6.55;;
549;SDS011;20066;48.764;9.176;2022-12-07T04:44:16;10.93;;;5.65;;
549;SDS011;20066;48.764;9.176;2022-12-07T04:46:44;12.73;;;7.28;;
549;SDS011;20066;48.764;9.176;2022-12-07T04:49:13;10.95;;;7.07;;
549;SDS011;20066;48.764;9.176;2022-12-07T04:51:43;10.10;;;5.38;;
549;SDS011;20066;48.764;9.176;2022-12-07T04:54:11;14.15;;;7.00;;
549;SDS011;20066;48.764;9.176;2022-12-07T04:56:39;11.82;;;5.63;;
549;SDS011;20066;48.764;9.176;2022-12-07T04:59:08;10.93;;;5.40;;
549;SDS011;20066;48.764;9.176;2022-12-07T05:01:37;9.85;;;5.20;;
549;SDS011;20066;48.764;9.176;2022-12-07T05:04:05;10.93;;;5.10;;
549;SDS011;20066;48.764;9.176;2022-12-07T05:06:32;6.47;;;3.80;;
549;SDS011;20066;48.764;9.176;2022-12-07T05:09:02;6.38;;;3.85;;
549;SDS011;20066;48.764;9.176;2022-12-07T05:11:30;5.88;;;3.55;;
549;SDS011;20066;48.764;9.176;2022-12-07T05:14:10;6.90;;;4.13;;
549;SDS011;20066;48.764;9.176;2022-12-07T05:16:40;6.82;;;3.78;;
549;SDS011;20066;48.764;9.176;2022-12-07T05:19:09;8.73;;;4.75;;
549;SDS011;20066;48.764;9.176;2022-12-07T05:21:37;8.38;;;4.30;;
549;SDS011;20066;48.764;9.176;2022-12-07T05:24:07;8.80;;;4.63;;
549;SDS011;20066;48.764;9.176;2022-12-07T05:26:36;8.25;;;4.78;;
549;SDS011;20066;48.764;9.176;2022-12-07T05:29:04;9.40;;;5.40;;
549;SDS011;20066;48.764;9.176;2022-12-07T05:31:32;9.98;;;4.88;;
549;SDS011;20066;48.764;9.176;2022-12-07T05:34:00;10.25;;;5.25;;
549;SDS011;20066;48.764;9.176;2022-12-07T05:36:28;12.48;;;6.38;;
549;SDS011;20066;48.764;9.176;2022-12-07T05:38:57;11.38;;;6.00;;
549;SDS011;20066;48.764;9.176;2022-12-07T05:41:27;9.77;;;5.80;;
549;SDS011;20066;48.764;9.176;2022-12-07T05:44:12;8.43;;;4.60;;
549;SDS011;20066;48.764;9.176;2022-12-07T05:46:39;12.38;;;5.65;;
549;SDS011;20066;48.764;9.176;2022-12-07T05:49:07;8.50;;;4.90;;
549;SDS011;20066;48.764;9.176;2022-12-07T05:51:35;11.73;;;6.82;;
549;SDS011;20066;48.764;9.176;2022-12-07T05:54:02;9.65;;;5.60;;
549;SDS011;20066;48.764;9.176;2022-12-07T05:56:32;9.90;;;5.50;;
549;SDS011;20066;48.764;9.176;2022-12-07T05:58:59;14.73;;;7.10;;
549;SDS011;20066;48.764;9.176;2022-12-07T06:01:45;11.90;;;6.45;;
549;SDS011;20066;48.764;9.176;2022-12-07T06:04:13;13.23;;;6.35;;
549;SDS011;20066;48.764;9.176;2022-12-07T06:06:40;11.90;;;6.28;;
549;SDS011;20066;48.764;9.176;2022-12-07T06:09:08;11.32;;;5.63;;
549;SDS011;20066;48.764;9.176;2022-12-07T06:11:38;13.80;;;7.40;;
549;SDS011;20066;48.764;9.176;2022-12-07T06:14:32;12.90;;;6.55;;
549;SDS011;20066;48.764;9.176;2022-12-07T06:17:00;11.70;;;5.85;;
549;SDS011;20066;48.764;9.176;2022-12-07T06:19:28;10.15;;;5.90;;
549;SDS011;20066;48.764;9.176;2022-12-07T06:21:56;15.43;;;6.72;;
549;SDS011;20066;48.764;9.176;2022-12-07T06:24:24;12.63;;;6.90;;
549;SDS011;20066;48.764;9.176;2022-12-07T06:26:53;10.85;;;6.07;;
549;SDS011;20066;48.764;9.176;2022-12-07T06:29:21;14.40;;;6.75;;
549;SDS011;20066;48.764;9.176;2022-12-07T06:31:49;12.70;;;6.45;;
549;SDS011;20066;48.764;9.176;2022-12-07T06:34:17;13.98;;;6.60;;
549;SDS011;20066;48.764;9.176;2022-12-07T06:36:46;15.75;;;6.30;;
549;SDS011;20066;48.764;9.176;2022-12-07T06:39:17;12.50;;;6.60;;
549;SDS011;20066;48.764;9.176;2022-12-07T06:41:45;13.70;;;6.88;;
549;SDS011;20066;48.764;9.176;2022-12-07T06:44:14;14.00;;;5.72;;
549;SDS011;20066;48.764;9.176;2022-12-07T06:46:42;15.40;;;7.13;;
549;SDS011;20066;48.764;9.176;2022-12-07T06:49:10;13.98;;;7.60;;
549;SDS011;20066;48.764;9.176;2022-12-07T06:51:38;13.77;;;7.47;;
549;SDS011;20066;48.764;9.176;2022-12-07T06:54:07;14.85;;;6.72;;
549;SDS011;20066;48.764;9.176;2022-12-07T06:56:35;10.48;;;5.60;;
549;SDS011;20066;48.764;9.176;2022-12-07T06:59:03;10.32;;;5.88;;
549;SDS011;20066;48.764;9.176;2022-12-07T07:01:34;13.35;;;6.20;;
549;SDS011;20066;48.764;9.176;2022-12-07T07:04:03;16.33;;;6.18;;
549;SDS011;20066;48.764;9.176;2022-12-07T07:06:31;13.65;;;5.55;;
549;SDS011;20066;48.764;9.176;2022-12-07T07:08:59;10.23;;;5.63;;
549;SDS011;20066;48.764;9.176;2022-12-07T07:11:27;10.65;;;5.35;;
549;SDS011;20066;48.764;9.176;2022-12-07T07:13:54;18.92;;;5.85;;
549;SDS011;20066;48.764;9.176;2022-12-07T07:16:28;8.50;;;5.00;;
549;SDS011;20066;48.764;9.176;2022-12-07T07:18:58;12.20;;;5.65;;
549;SDS011;20066;48.764;9.176;2022-12-07T07:21:25;9.77;;;5.30;;
549;SDS011;20066;48.764;9.176;2022-12-07T07:23:53;9.43;;;4.95;;
549;SDS011;20066;48.764;9.176;2022-12-07T07:26:22;15.32;;;6.45;;
549;SDS011;20066;48.764;9.176;2022-12-07T07:28:50;13.10;;;5.82;;
549;SDS011;20066;48.764;9.176;2022-12-07T07:31:18;11.50;;;5.80;;
549;SDS011;20066;48.764;9.176;2022-12-07T07:33:45;14.13;;;5.45;;
549;SDS011;20066;48.764;9.176;2022-12-07T07:36:14;11.18;;;5.32;;
549;SDS011;20066;48.764;9.176;2022-12-07T07:38:42;10.32;;;5.32;;
549;SDS011;20066;48.764;9.176;2022-12-07T07:41:10;10.70;;;5.72;;
549;SDS011;20066;48.764;9.176;2022-12-07T07:43:39;9.43;;;4.97;;
549;SDS011;20066;48.764;9.176;2022-12-07T07:46:06;12.25;;;5.35;;
549;SDS011;20066;48.764;9.176;2022-12-07T07:48:34;8.48;;;4.47;;
549;SDS011;20066;48.764;9.176;2022-12-07T07:51:04;13.98;;;5.50;;
549;SDS011;20066;48.764;9.176;2022-12-07T07:53:34;13.40;;;5.85;;
549;SDS011;20066;48.764;9.176;2022-12-07T07:56:02;12.75;;;5.65;;
549;SDS011;20066;48.764;9.176;2022-12-07T07:58:30;25.40;;;11.35;;
549;SDS011;20066;48.764;9.176;2022-12-07T08:01:02;19.88;;;11.90;;
549;SDS011;20066;48.764;9.176;2022-12-07T08:03:31;18.40;;;6.57;;
549;SDS011;20066;48.764;9.176;2022-12-07T08:05:58;15.00;;;5.90;;
549;SDS011;20066;48.764;9.176;2022-12-07T08:08:26;10.77;;;5.82;;
549;SDS011;20066;48.764;9.176;2022-12-07T08:10:55;14.23;;;5.55;;
549;SDS011;20066;48.764;9.176;2022-12-07T08:13:26;13.75;;;6.60;;
549;SDS011;20066;48.764;9.176;2022-12-07T08:15:57;10.50;;;5.65;;
549;SDS011;20066;48.764;9.176;2022-12-07T08:18:25;10.55;;;5.95;;
549;SDS011;20066;48.764;9.176;2022-12-07T08:20:58;9.07;;;5.25;;
549;SDS011;20066;48.764;9.176;2022-12-07T08:23:26;9.20;;;5.63;;
549;SDS011;20066;48.764;9.176;2022-12-07T08:26:06;13.00;;;5.90;;
549;SDS011;20066;48.764;9.176;2022-12-07T08:28:35;11.77;;;5.95;;
549;SDS011;20066;48.764;9.176;2022-12-07T08:31:04;13.90;;;6.10;;
549;SDS011;20066;48.764;9.176;2022-12-07T08:33:34;10.57;;;5.25;;
549;SDS011;20066;48.764;9.176;2022-12-07T08:36:03;11.23;;;5.35;;
549;SDS011;20066;48.764;9.176;2022-12-07T08:38:33;10.15;;;5.80;;
549;SDS011;20066;48.764;9.176;2022-12-07T08:41:01;10.60;;;6.00;;
549;SDS011;20066;48.764;9.176;2022-12-07T08:43:30;12.60;;;5.35;;
549;SDS011;20066;48.764;9.176;2022-12-07T08:46:00;11.77;;;5.78;;
549;SDS011;20066;48.764;9.176;2022-12-07T08:48:34;14.70;;;6.78;;
549;SDS011;20066;48.764;9.176;2022-12-07T08:51:05;9.95;;;4.70;;
549;SDS011;20066;48.764;9.176;2022-12-07T08:53:32;11.63;;;5.50;;
549;SDS011;20066;48.764;9.176;2022-12-07T08:56:02;12.98;;;5.55;;
549;SDS011;20066;48.764;9.176;2022-12-07T08:58:32;13.80;;;5.40;;
549;SDS011;20066;48.764;9.176;2022-12-07T09:01:01;11.45;;;5.78;;
549;SDS011;20066;48.764;9.176;2022-12-07T09:03:28;11.98;;;6.20;;
549;SDS011;20066;48.764;9.176;2022-12-07T09:05:56;11.82;;;5.70;;
549;SDS011;20066;48.764;9.176;2022-12-07T09:08:26;13.90;;;5.60;;
549;SDS011;20066;48.764;9.176;2022-12-07T09:10:56;14.10;;;6.00;;
549;SDS011;20066;48.764;9.176;2022-12-07T09:13:24;10.88;;;5.03;;
549;SDS011;20066;48.764;9.176;2022-12-07T09:15:53;10.43;;;5.60;;
549;SDS011;20066;48.764;9.176;2022-12-07T09:18:21;10.68;;;5.70;;
549;SDS011;20066;48.764;9.176;2022-12-07T09:20:50;10.57;;;4.85;;
549;SDS011;20066;48.764;9.176;2022-12-07T09:23:18;9.45;;;4.55;;
549;SDS011;20066;48.764;9.176;2022-12-07T09:25:45;7.57;;;4.32;;
549;SDS011;20066;48.764;9.176;2022-12-07T09:28:13;9.57;;;4.88;;
549;SDS011;20066;48.764;9.176;2022-12-07T09:30:44;9.05;;;4.88;;
549;SDS011;20066;48.764;9.176;2022-12-07T09:33:34;7.53;;;4.00;;
549;SDS011;20066;48.764;9.176;2022-12-07T09:36:03;9.40;;;4.70;;
549;SDS011;20066;48.764;9.176;2022-12-07T09:38:31;11.45;;;4.30;;
549;SDS011;20066;48.764;9.176;2022-12-07T09:41:03;8.63;;;4.18;;
549;SDS011;20066;48.764;9.176;2022-12-07T09:43:33;8.93;;;3.97;;
549;SDS011;20066;48.764;9.176;2022-12-07T09:46:03;7.78;;;4.05;;
549;SDS011;20066;48.764;9.176;2022-12-07T09:48:32;9.30;;;3.92;;
549;SDS011;20066;48.764;9.176;2022-12-07T09:51:09;6.43;;;3.63;;
549;SDS011;20066;48.764;9.176;2022-12-07T09:53:48;9.98;;;4.07;;
549;SDS011;20066;48.764;9.176;2022-12-07T09:56:17;7.25;;;3.70;;
549;SDS011;20066;48.764;9.176;2022-12-07T09:58:46;6.72;;;3.80;;
549;SDS011;20066;48.764;9.176;2022-12-07T10:01:16;7.85;;;3.67;;
549;SDS011;20066;48.764;9.176;2022-12-07T10:03:49;12.35;;;3.97;;
549;SDS011;20066;48.764;9.176;2022-12-07T10:06:18;8.68;;;4.50;;
549;SDS011;20066;48.764;9.176;2022-12-07T10:08:46;6.78;;;3.88;;
549;SDS011;20066;48.764;9.176;2022-12-07T10:11:14;10.30;;;4.20;;
549;SDS011;20066;48.764;9.176;2022-12-07T10:13:43;10.63;;;6.03;;
549;SDS011;20066;48.764;9.176;2022-12-07T10:19:19;13.43;;;4.45;;
549;SDS011;20066;48.764;9.176;2022-12-07T10:21:59;7.45;;;3.85;;
549;SDS011;20066;48.764;9.176;2022-12-07T10:24:33;6.53;;;3.83;;
549;SDS011;20066;48.764;9.176;2022-12-07T10:27:01;6.38;;;3.95;;
549;SDS011;20066;48.764;9.176;2022-12-07T10:29:29;7.05;;;3.45;;
549;SDS011;20066;48.764;9.176;2022-12-07T10:31:59;5.95;;;3.40;;
549;SDS011;20066;48.764;9.176;2022-12-07T10:34:32;7.22;;;3.30;;
549;SDS011;20066;48.764;9.176;2022-12-07T10:37:13;7.10;;;3.17;;
549;SDS011;20066;48.764;9.176;2022-12-07T10:39:43;6.68;;;3.22;;
549;SDS011;20066;48.764;9.176;2022-12-07T10:42:15;6.72;;;3.00;;
549;SDS011;20066;48.764;9.176;2022-12-07T10:44:45;8.60;;;3.72;;
549;SDS011;20066;48.764;9.176;2022-12-07T10:47:19;7.55;;;3.88;;
549;SDS011;20066;48.764;9.176;2022-12-07T10:50:14;6.88;;;3.55;;
549;SDS011;20066;48.764;9.176;2022-12-07T10:56:05;7.53;;;3.90;;
549;SDS011;20066;48.764;9.176;2022-12-07T10:58:59;6.05;;;3.58;;
549;SDS011;20066;48.764;9.176;2022-12-07T11:01:41;10.77;;;3.10;;
549;SDS011;20066;48.764;9.176;2022-12-07T11:07:06;7.20;;;3.35;;
549;SDS011;20066;48.764;9.176;2022-12-07T11:09:50;7.80;;;3.00;;
549;SDS011;20066;48.764;9.176;2022-12-07T11:12:38;9.77;;;4.15;;
549;SDS011;20066;48.764;9.176;2022-12-07T11:15:17;7.28;;;3.53;;
549;SDS011;20066;48.764;9.176;2022-12-07T11:17:53;6.40;;;3.38;;
549;SDS011;20066;48.764;9.176;2022-12-07T11:20:29;8.00;;;4.20;;
549;SDS011;20066;48.764;9.176;2022-12-07T11:23:12;8.05;;;4.03;;
549;SDS011;20066;48.764;9.176;2022-12-07T11:25:48;6.20;;;3.38;;
549;SDS011;20066;48.764;9.176;2022-12-07T11:28:26;10.82;;;3.90;;
549;SDS011;20066;48.764;9.176;2022-12-07T11:31:22;9.60;;;3.17;;
549;SDS011;20066;48.764;9.176;2022-12-07T11:33:57;7.55;;;3.15;;
549;SDS011;20066;48.764;9.176;2022-12-07T11:36:33;5.75;;;2.75;;
549;SDS011;20066;48.764;9.176;2022-12-07T11:39:09;6.25;;;2.85;;
549;SDS011;20066;48.764;9.176;2022-12-07T11:41:43;5.35;;;2.63;;
549;SDS011;20066;48.764;9.176;2022-12-07T11:44:18;4.80;;;2.47;;
549;SDS011;20066;48.764;9.176;2022-12-07T11:46:56;4.60;;;2.00;;
549;SDS011;20066;48.764;9.176;2022-12-07T11:49:32;5.78;;;3.25;;
549;SDS011;20066;48.764;9.176;2022-12-07T11:52:11;5.28;;;2.90;;
549;SDS011;20066;48.764;9.176;2022-12-07T11:54:48;9.07;;;2.50;;
549;SDS011;20066;48.764;9.176;2022-12-07T11:57:21;3.85;;;2.35;;
549;SDS011;20066;48.764;9.176;2022-12-07T11:59:57;4.82;;;2.80;;
549;SDS011;20066;48.764;9.176;2022-12-07T12:02:32;4.30;;;2.40;;
549;SDS011;20066;48.764;9.176;2022-12-07T12:05:05;5.55;;;3.13;;
549;SDS011;20066;48.764;9.176;2022-12-07T12:07:40;4.90;;;2.88;;
549;SDS011;20066;48.764;9.176;2022-12-07T12:10:35;4.53;;;2.40;;
549;SDS011;20066;48.764;9.176;2022-12-07T12:13:19;5.13;;;3.33;;
549;SDS011;20066;48.764;9.176;2022-12-07T12:16:22;6.63;;;3.97;;
549;SDS011;20066;48.764;9.176;2022-12-07T12:19:18;6.90;;;4.32;;
549;SDS011;20066;48.764;9.176;2022-12-07T12:21:54;8.00;;;5.25;;
549;SDS011;20066;48.764;9.176;2022-12-07T12:24:26;7.93;;;4.22;;
549;SDS011;20066;48.764;9.176;2022-12-07T12:26:58;9.90;;;4.85;;
549;SDS011;20066;48.764;9.176;2022-12-07T12:29:31;8.50;;;5.00;;
549;SDS011;20066;48.764;9.176;2022-12-07T12:32:13;9.10;;;4.72;;
549;SDS011;20066;48.764;9.176;2022-12-07T12:34:57;11.35;;;5.90;;
549;SDS011;20066;48.764;9.176;2022-12-07T12:37:47;13.10;;;6.65;;
549;SDS011;20066;48.764;9.176;2022-12-07T12:49:32;8.93;;;5.18;;
549;SDS011;20066;48.764;9.176;2022-12-07T12:52:45;10.55;;;5.10;;
549;SDS011;20066;48.764;9.176;2022-12-07T12:55:17;8.50;;;5.00;;
549;SDS011;20066;48.764;9.176;2022-12-07T12:57:52;10.05;;;5.72;;
549;SDS011;20066;48.764;9.176;2022-12-07T13:07:13;7.97;;;4.30;;
549;SDS011;20066;48.764;9.176;2022-12-07T13:10:24;9.90;;;4.85;;
549;SDS011;20066;48.764;9.176;2022-12-07T13:12:59;8.38;;;3.97;;
549;SDS011;20066;48.764;9.176;2022-12-07T13:15:32;7.90;;;4.47;;
549;SDS011;20066;48.764;9.176;2022-12-07T13:18:04;7.18;;;3.75;;
549;SDS011;20066;48.764;9.176;2022-12-07T13:20:51;6.82;;;4.03;;
549;SDS011;20066;48.764;9.176;2022-12-07T13:23:22;11.13;;;4.25;;
549;SDS011;20066;48.764;9.176;2022-12-07T13:28:45;6.68;;;3.90;;
549;SDS011;20066;48.764;9.176;2022-12-07T13:31:18;7.93;;;4.05;;
549;SDS011;20066;48.764;9.176;2022-12-07T13:33:54;8.10;;;3.70;;
549;SDS011;20066;48.764;9.176;2022-12-07T13:36:22;8.27;;;4.70;;
549;SDS011;20066;48.764;9.176;2022-12-07T13:38:53;7.85;;;4.40;;
549;SDS011;20066;48.764;9.176;2022-12-07T13:41:23;7.85;;;4.18;;
549;SDS011;20066;48.764;9.176;2022-12-07T13:43:53;7.38;;;3.72;;
549;SDS011;20066;48.764;9.176;2022-12-07T13:46:31;7.03;;;3.45;;
549;SDS011;20066;48.764;9.176;2022-12-07T13:49:17;7.68;;;4.10;;
549;SDS011;20066;48.764;9.176;2022-12-07T13:51:47;6.70;;;3.58;;
549;SDS011;20066;48.764;9.176;2022-12-07T13:54:15;8.00;;;4.10;;
549;SDS011;20066;48.764;9.176;2022-12-07T13:56:43;6.55;;;3.50;;
549;SDS011;20066;48.764;9.176;2022-12-07T13:59:16;7.68;;;4.13;;
549;SDS011;20066;48.764;9.176;2022-12-07T14:01:46;8.20;;;4.03;;
549;SDS011;20066;48.764;9.176;2022-12-07T14:07:18;7.43;;;3.75;;
549;SDS011;20066;48.764;9.176;2022-12-07T14:09:55;6.10;;;3.38;;
549;SDS011;20066;48.764;9.176;2022-12-07T14:12:25;6.18;;;3.20;;
549;SDS011;20066;48.764;9.176;2022-12-07T14:14:54;5.70;;;3.60;;
549;SDS011;20066;48.764;9.176;2022-12-07T14:17:24;9.70;;;4.88;;
549;SDS011;20066;48.764;9.176;2022-12-07T14:19:54;5.57;;;2.83;;
549;SDS011;20066;48.764;9.176;2022-12-07T14:22:28;6.50;;;3.25;;
549;SDS011;20066;48.764;9.176;2022-12-07T14:24:58;6.57;;;3.70;;
549;SDS011;20066;48.764;9.176;2022-12-07T14:27:30;6.50;;;3.78;;
549;SDS011;20066;48.764;9.176;2022-12-07T14:30:01;10.40;;;3.90;;
549;SDS011;20066;48.764;9.176;2022-12-07T14:32:29;7.88;;;3.40;;
549;SDS011;20066;48.764;9.176;2022-12-07T14:35:00;6.57;;;3.15;;
549;SDS011;20066;48.764;9.176;2022-12-07T14:37:30;5.43;;;3.03;;
549;SDS011;20066;48.764;9.176;2022-12-07T14:39:58;6.60;;;4.00;;
549;SDS011;20066;48.764;9.176;2022-12-07T14:42:27;7.68;;;3.90;;
549;SDS011;20066;48.764;9.176;2022-12-07T14:44:57;11.18;;;4.55;;
549;SDS011;20066;48.764;9.176;2022-12-07T14:47:26;8.13;;;4.00;;
549;SDS011;20066;48.764;9.176;2022-12-07T14:50:17;9.63;;;4.75;;
549;SDS011;20066;48.764;9.176;2022-12-07T14:52:46;8.32;;;4.18;;
549;SDS011;20066;48.764;9.176;2022-12-07T14:55:37;8.35;;;4.15;;
549;SDS011;20066;48.764;9.176;2022-12-07T14:58:05;5.93;;;3.80;;
549;SDS011;20066;48.764;9.176;2022-12-07T15:00:33;8.00;;;4.30;;
549;SDS011;20066;48.764;9.176;2022-12-07T15:03:01;7.10;;;4.00;;
549;SDS011;20066;48.764;9.176;2022-12-07T15:05:30;8.00;;;4.78;;
549;SDS011;20066;48.764;9.176;2022-12-07T15:07:59;7.45;;;4.60;;
549;SDS011;20066;48.764;9.176;2022-12-07T15:10:27;10.43;;;5.28;;
549;SDS011;20066;48.764;9.176;2022-12-07T15:12:58;9.45;;;3.95;;
549;SDS011;20066;48.764;9.176;2022-12-07T15:15:47;7.70;;;3.75;;
549;SDS011;20066;48.764;9.176;2022-12-07T15:18:16;8.18;;;4.50;;
549;SDS011;20066;48.764;9.176;2022-12-07T15:20:45;12.00;;;4.55;;
549;SDS011;20066;48.764;9.176;2022-12-07T15:23:13;9.23;;;5.25;;
549;SDS011;20066;48.764;9.176;2022-12-07T15:25:42;10.27;;;4.95;;
549;SDS011;20066;48.764;9.176;2022-12-07T15:28:10;9.00;;;4.80;;
549;SDS011;20066;48.764;9.176;2022-12-07T15:30:38;7.18;;;4.45;;
549;SDS011;20066;48.764;9.176;2022-12-07T15:33:06;6.47;;;4.07;;
549;SDS011;20066;48.764;9.176;2022-12-07T15:35:37;9.98;;;5.15;;
549;SDS011;20066;48.764;9.176;2022-12-07T15:38:07;8.65;;;4.28;;
549;SDS011;20066;48.764;9.176;2022-12-07T15:40:35;8.00;;;5.00;;
549;SDS011;20066;48.764;9.176;2022-12-07T15:43:03;13.88;;;4.15;;
549;SDS011;20066;48.764;9.176;2022-12-07T15:45:31;8.35;;;4.55;;
549;SDS011;20066;48.764;9.176;2022-12-07T15:47:57;9.20;;;4.30;;
549;SDS011;20066;48.764;9.176;2022-12-07T15:50:45;9.73;;;4.97;;
549;SDS011;20066;48.764;9.176;2022-12-07T15:53:14;9.55;;;5.00;;
549;SDS011;20066;48.764;9.176;2022-12-07T15:55:42;9.70;;;5.32;;
549;SDS011;20066;48.764;9.176;2022-12-07T15:58:10;9.68;;;5.10;;
549;SDS011;20066;48.764;9.176;2022-12-07T16:00:38;10.57;;;5.50;;
549;SDS011;20066;48.764;9.176;2022-12-07T16:03:05;11.60;;;4.85;;
549;SDS011;20066;48.764;9.176;2022-12-07T16:05:33;9.95;;;5.65;;
549;SDS011;20066;48.764;9.176;2022-12-07T16:08:01;11.77;;;6.03;;
549;SDS011;20066;48.764;9.176;2022-12-07T16:10:30;11.30;;;5.95;;